createdAt,value
2019-05-21T00:00:27.878Z,65.11
2019-05-21T00:01:27.864Z,64.94
2019-05-21T00:02:27.855Z,64.94
2019-05-21T00:03:27.848Z,65.75
2019-05-21T00:04:28.712Z,65.14
2019-05-21T00:05:27.858Z,64.53
2019-05-21T00:06:27.811Z,65.55
2019-05-21T00:07:27.821Z,67.78
2019-05-21T00:08:27.818Z,71.23
2019-05-21T00:09:27.783Z,69.10
2019-05-21T00:10:27.774Z,67.78
2019-05-21T00:11:27.768Z,66.05
2019-05-21T00:12:27.776Z,68.59
2019-05-21T00:13:27.777Z,69.51
2019-05-21T00:14:27.722Z,70.83
2019-05-21T00:15:27.710Z,73.57
2019-05-21T00:16:27.712Z,72.99
2019-05-21T00:17:27.698Z,73.09
2019-05-21T00:18:27.692Z,74.21
2019-05-21T00:19:27.738Z,73.90
2019-05-21T00:20:27.661Z,73.70
2019-05-21T00:21:27.656Z,74.21
2019-05-21T00:22:27.665Z,74.82
2019-05-21T00:23:27.623Z,75.76
2019-05-21T00:24:27.617Z,76.58
2019-05-21T00:25:27.693Z,76.58
2019-05-21T00:26:27.596Z,77.02
2019-05-21T00:27:27.594Z,76.58
2019-05-21T00:28:27.582Z,76.41
2019-05-21T00:29:35.047Z,76.10
2019-05-21T00:30:27.544Z,74.99
2019-05-21T00:31:27.534Z,75.84
2019-05-21T00:32:27.530Z,76.55
2019-05-21T00:33:27.534Z,76.34
2019-05-21T00:34:41.791Z,76.04
2019-05-21T00:35:28.497Z,76.65
2019-05-21T00:36:27.563Z,76.65
2019-05-21T00:37:27.534Z,75.73
2019-05-21T00:38:27.464Z,76.45
2019-05-21T00:39:27.472Z,78.92
2019-05-21T00:40:27.447Z,77.20
2019-05-21T00:41:27.450Z,76.48
2019-05-21T00:42:27.470Z,77.91
2019-05-21T00:43:27.426Z,77.20
2019-05-21T00:44:27.435Z,78.72
2019-05-21T00:45:27.415Z,77.44
2019-05-21T00:46:27.381Z,79.68
2019-05-21T00:47:27.363Z,82.12
2019-05-21T00:48:27.356Z,82.82
2019-05-21T00:49:27.340Z,82.32
2019-05-21T00:50:27.408Z,82.56
2019-05-21T00:51:27.320Z,83.58
2019-05-21T00:52:27.313Z,84.29
2019-05-21T00:53:27.307Z,84.29
2019-05-21T00:54:27.290Z,85.41
2019-05-21T00:55:27.288Z,86.02
2019-05-21T00:56:27.354Z,86.43
2019-05-21T00:57:27.261Z,86.53
2019-05-21T00:58:27.244Z,87.04
2019-05-21T00:59:27.231Z,87.24
2019-05-21T01:00:27.223Z,87.65
2019-05-21T01:01:37.089Z,87.45
2019-05-21T01:02:27.201Z,86.63
2019-05-21T01:03:27.195Z,86.47
2019-05-21T01:04:27.181Z,87.65
2019-05-21T01:05:27.164Z,88.81
2019-05-21T01:06:27.165Z,88.92
2019-05-21T01:07:27.168Z,87.96
2019-05-21T01:08:27.178Z,87.75
2019-05-21T01:09:27.199Z,87.45
2019-05-21T01:10:27.116Z,88.51
2019-05-21T01:11:27.102Z,88.31
2019-05-21T01:12:27.151Z,88.20
2019-05-21T01:13:27.085Z,89.32
2019-05-21T01:14:27.103Z,89.12
2019-05-21T01:15:27.059Z,90.44
2019-05-21T01:16:27.063Z,90.24
2019-05-21T01:17:27.086Z,90.64
2019-05-21T01:18:27.065Z,90.44
2019-05-21T01:19:27.023Z,90.44
2019-05-21T01:20:27.009Z,90.30
2019-05-21T01:21:27.004Z,89.99
2019-05-21T01:22:26.985Z,90.44
2019-05-21T01:23:27.018Z,90.30
2019-05-21T01:24:27.024Z,90.81
2019-05-21T01:25:26.952Z,90.20
2019-05-21T01:26:26.941Z,90.30
2019-05-21T01:27:26.936Z,90.50
2019-05-21T01:28:26.929Z,90.40
2019-05-21T01:29:26.915Z,90.44
2019-05-21T01:30:26.945Z,90.30
2019-05-21T01:31:26.930Z,90.09
2019-05-21T01:32:26.879Z,90.34
2019-05-21T01:33:33.852Z,90.09
2019-05-21T01:34:26.855Z,89.89
2019-05-21T01:35:26.838Z,90.20
2019-05-21T01:36:26.834Z,90.50
2019-05-21T01:37:26.880Z,89.59
2019-05-21T01:38:26.832Z,89.59
2019-05-21T01:39:26.806Z,89.18
2019-05-21T01:40:26.789Z,89.59
2019-05-21T01:41:26.795Z,90.60
2019-05-21T01:42:26.767Z,90.24
2019-05-21T01:43:26.795Z,89.07
2019-05-21T01:44:26.770Z,89.18
2019-05-21T01:45:26.744Z,90.09
2019-05-21T01:46:26.728Z,90.24
2019-05-21T01:47:26.777Z,90.03
2019-05-21T01:48:26.702Z,90.24
2019-05-21T01:49:26.706Z,90.34
2019-05-21T01:50:26.678Z,91.26
2019-05-21T01:51:26.669Z,91.26
2019-05-21T01:52:26.752Z,91.16
2019-05-21T01:53:26.655Z,91.77
2019-05-21T01:54:26.641Z,91.97
2019-05-21T01:55:26.626Z,91.97
2019-05-21T01:56:26.624Z,91.77
2019-05-21T01:57:26.609Z,91.16
2019-05-21T01:58:26.729Z,91.05
2019-05-21T01:59:26.579Z,91.16
2019-05-21T02:00:26.578Z,91.87
2019-05-21T02:01:26.559Z,90.95
2019-05-21T02:02:26.555Z,91.31
2019-05-21T02:03:26.539Z,90.55
2019-05-21T02:04:26.608Z,90.40
2019-05-21T02:05:34.149Z,91.46
2019-05-21T02:06:26.501Z,91.46
2019-05-21T02:07:26.502Z,90.60
2019-05-21T02:08:26.499Z,90.20
2019-05-21T02:09:26.539Z,91.56
2019-05-21T02:10:26.464Z,91.22
2019-05-21T02:11:26.452Z,91.62
2019-05-21T02:12:26.478Z,91.22
2019-05-21T02:13:26.433Z,91.11
2019-05-21T02:14:26.487Z,91.22
2019-05-21T02:15:26.456Z,91.62
2019-05-21T02:16:26.400Z,91.83
2019-05-21T02:17:26.396Z,91.93
2019-05-21T02:18:26.382Z,91.72
2019-05-21T02:19:26.390Z,91.93
2019-05-21T02:20:26.466Z,91.83
2019-05-21T02:21:26.350Z,91.31
2019-05-21T02:22:26.342Z,91.83
2019-05-21T02:23:26.326Z,91.78
2019-05-21T02:24:26.315Z,91.22
2019-05-21T02:25:26.342Z,91.11
2019-05-21T02:26:26.328Z,91.31
2019-05-21T02:27:26.282Z,91.62
2019-05-21T02:28:26.269Z,91.72
2019-05-21T02:29:26.270Z,90.70
2019-05-21T02:30:26.256Z,90.60
2019-05-21T02:31:26.275Z,91.42
2019-05-21T02:32:26.279Z,91.48
2019-05-21T02:33:26.217Z,91.38
2019-05-21T02:34:26.207Z,90.91
2019-05-21T02:35:26.194Z,90.81
2019-05-21T02:36:26.209Z,90.05
2019-05-21T02:37:34.698Z,90.40
2019-05-21T02:38:26.176Z,90.70
2019-05-21T02:39:26.154Z,90.30
2019-05-21T02:40:26.139Z,90.09
2019-05-21T02:41:26.146Z,90.20
2019-05-21T02:42:26.122Z,90.09
2019-05-21T02:43:26.157Z,89.79
2019-05-21T02:44:26.092Z,89.44
2019-05-21T02:45:26.090Z,89.59
2019-05-21T02:46:26.124Z,88.77
2019-05-21T02:47:26.066Z,90.50
2019-05-21T02:48:26.096Z,89.24
2019-05-21T02:49:26.049Z,89.14
2019-05-21T02:50:26.035Z,88.63
2019-05-21T02:51:26.065Z,89.54
2019-05-21T02:52:26.004Z,88.83
2019-05-21T02:53:26.013Z,89.03
2019-05-21T02:54:40.280Z,89.54
2019-05-21T02:55:26.973Z,89.24
2019-05-21T02:56:25.984Z,90.16
2019-05-21T02:57:26.008Z,89.03
2019-05-21T02:58:25.949Z,89.09
2019-05-21T02:59:25.937Z,89.30
2019-05-21T03:00:25.935Z,88.28
2019-05-21T03:01:25.908Z,88.79
2019-05-21T03:02:25.907Z,89.09
2019-05-21T03:03:25.984Z,89.81
2019-05-21T03:04:25.884Z,88.48
2019-05-21T03:05:25.873Z,88.39
2019-05-21T03:06:25.861Z,88.59
2019-05-21T03:07:25.921Z,89.64
2019-05-21T03:08:25.842Z,89.34
2019-05-21T03:09:34.687Z,89.50
2019-05-21T03:10:25.817Z,89.64
2019-05-21T03:11:25.804Z,89.14
2019-05-21T03:12:25.797Z,88.83
2019-05-21T03:13:25.785Z,89.61
2019-05-21T03:14:25.791Z,88.93
2019-05-21T03:15:25.783Z,89.95
2019-05-21T03:16:25.763Z,89.64
2019-05-21T03:17:25.735Z,89.64
2019-05-21T03:18:25.759Z,89.44
2019-05-21T03:19:25.787Z,88.73
2019-05-21T03:20:25.714Z,89.34
2019-05-21T03:21:25.755Z,89.64
2019-05-21T03:22:25.682Z,89.44
2019-05-21T03:23:25.676Z,88.69
2019-05-21T03:24:25.659Z,89.44
2019-05-21T03:25:25.695Z,88.53
2019-05-21T03:26:25.715Z,88.53
2019-05-21T03:27:25.669Z,87.67
2019-05-21T03:28:25.615Z,87.06
2019-05-21T03:29:25.688Z,87.77
2019-05-21T03:30:25.601Z,87.67
2019-05-21T03:31:25.639Z,87.87
2019-05-21T03:32:25.626Z,87.67
2019-05-21T03:33:25.572Z,87.26
2019-05-21T03:34:25.588Z,87.57
2019-05-21T03:35:25.548Z,87.26
2019-05-21T03:36:33.576Z,86.45
2019-05-21T03:37:26.538Z,87.26
2019-05-21T03:38:25.531Z,86.96
2019-05-21T03:39:25.499Z,86.96
2019-05-21T03:40:25.485Z,86.55
2019-05-21T03:41:34.222Z,86.69
2019-05-21T03:42:25.472Z,86.49
2019-05-21T03:43:25.458Z,87.26
2019-05-21T03:44:25.446Z,86.65
2019-05-21T03:45:25.435Z,87.57
2019-05-21T03:46:25.431Z,86.65
2019-05-21T03:47:25.428Z,87.26
2019-05-21T03:48:25.409Z,87.16
2019-05-21T03:49:25.434Z,87.26
2019-05-21T03:50:25.389Z,87.26
2019-05-21T03:51:25.422Z,87.20
2019-05-21T03:52:25.366Z,87.06
2019-05-21T03:53:25.472Z,86.55
2019-05-21T03:54:25.393Z,87.57
2019-05-21T03:55:25.329Z,87.37
2019-05-21T03:56:25.323Z,86.76
2019-05-21T03:57:25.306Z,87.16
2019-05-21T03:58:25.295Z,87.57
2019-05-21T03:59:25.369Z,87.37
2019-05-21T04:00:25.303Z,87.06
2019-05-21T04:01:25.268Z,87.57
2019-05-21T04:02:25.246Z,87.87
2019-05-21T04:03:25.245Z,87.57
2019-05-21T04:04:25.235Z,87.26
2019-05-21T04:05:25.276Z,87.26
2019-05-21T04:06:28.729Z,87.16
2019-05-21T04:07:25.193Z,86.71
2019-05-21T04:08:25.191Z,87.02
2019-05-21T04:09:25.242Z,86.96
2019-05-21T04:10:25.172Z,86.10
2019-05-21T04:11:25.161Z,86.71
2019-05-21T04:12:25.147Z,87.53
2019-05-21T04:13:32.620Z,86.61
2019-05-21T04:14:25.131Z,86.31
2019-05-21T04:15:25.122Z,86.41
2019-05-21T04:16:25.157Z,85.86
2019-05-21T04:17:25.085Z,85.70
2019-05-21T04:18:25.098Z,86.07
2019-05-21T04:19:25.097Z,86.51
2019-05-21T04:20:25.057Z,85.80
2019-05-21T04:21:25.068Z,85.29
2019-05-21T04:22:25.091Z,84.64
2019-05-21T04:23:25.021Z,85.46
2019-05-21T04:24:25.064Z,85.25
2019-05-21T04:25:25.129Z,86.47
2019-05-21T04:26:24.998Z,85.76
2019-05-21T04:27:24.992Z,85.41
2019-05-21T04:28:24.975Z,86.02
2019-05-21T04:29:25.029Z,84.50
2019-05-21T04:30:24.946Z,84.30
2019-05-21T04:31:25.029Z,84.50
2019-05-21T04:32:24.937Z,84.80
2019-05-21T04:33:24.916Z,85.07
2019-05-21T04:34:25.028Z,84.36
2019-05-21T04:35:24.892Z,84.46
2019-05-21T04:36:24.888Z,84.22
2019-05-21T04:37:24.915Z,84.01
2019-05-21T04:38:24.855Z,81.48
2019-05-21T04:39:24.878Z,81.18
2019-05-21T04:40:24.839Z,81.44
2019-05-21T04:41:24.834Z,80.63
2019-05-21T04:42:24.815Z,80.73
2019-05-21T04:43:24.827Z,81.85
2019-05-21T04:44:24.795Z,81.04
2019-05-21T04:45:32.756Z,80.43
2019-05-21T04:46:24.809Z,80.93
2019-05-21T04:47:24.763Z,80.73
2019-05-21T04:48:24.759Z,81.24
2019-05-21T04:49:24.740Z,80.39
2019-05-21T04:50:24.744Z,80.59
2019-05-21T04:51:24.721Z,80.29
2019-05-21T04:52:24.800Z,80.39
2019-05-21T04:53:24.704Z,80.08
2019-05-21T04:54:24.696Z,80.79
2019-05-21T04:55:24.717Z,80.69
2019-05-21T04:56:24.667Z,80.69
2019-05-21T04:57:24.666Z,80.08
2019-05-21T04:58:24.691Z,80.99
2019-05-21T04:59:24.638Z,80.39
2019-05-21T05:00:24.669Z,79.94
2019-05-21T05:01:24.610Z,79.68
2019-05-21T05:02:24.594Z,79.85
2019-05-21T05:03:24.595Z,78.97
2019-05-21T05:04:24.611Z,80.79
2019-05-21T05:05:24.618Z,80.96
2019-05-21T05:06:24.607Z,79.34
2019-05-21T05:07:28.292Z,80.76
2019-05-21T05:08:24.543Z,80.45
2019-05-21T05:09:24.577Z,80.45
2019-05-21T05:10:24.556Z,80.25
2019-05-21T05:11:24.502Z,80.86
2019-05-21T05:12:24.543Z,80.65
2019-05-21T05:13:24.479Z,80.35
2019-05-21T05:14:24.472Z,78.83
2019-05-21T05:15:24.450Z,78.73
2019-05-21T05:16:24.458Z,78.12
2019-05-21T05:17:32.307Z,77.92
2019-05-21T05:18:24.420Z,78.49
2019-05-21T05:19:24.415Z,77.31
2019-05-21T05:20:24.413Z,76.80
2019-05-21T05:21:24.386Z,77.61
2019-05-21T05:22:24.383Z,78.93
2019-05-21T05:23:24.376Z,79.34
2019-05-21T05:24:24.401Z,78.63
2019-05-21T05:25:24.373Z,78.53
2019-05-21T05:26:24.336Z,79.91
2019-05-21T05:27:24.365Z,78.08
2019-05-21T05:28:24.318Z,78.73
2019-05-21T05:29:24.350Z,79.10
2019-05-21T05:30:24.297Z,79.40
2019-05-21T05:31:24.290Z,79.16
2019-05-21T05:32:24.290Z,78.15
2019-05-21T05:33:24.259Z,78.45
2019-05-21T05:34:24.257Z,77.84
2019-05-21T05:35:24.239Z,76.93
2019-05-21T05:36:24.246Z,78.05
2019-05-21T05:37:24.257Z,77.03
2019-05-21T05:38:24.234Z,77.75
2019-05-21T05:39:24.191Z,77.50
2019-05-21T05:40:24.186Z,77.91
2019-05-21T05:41:24.174Z,78.52
2019-05-21T05:42:24.169Z,77.71
2019-05-21T05:43:24.172Z,76.79
2019-05-21T05:44:24.168Z,76.29
2019-05-21T05:45:24.132Z,77.81
2019-05-21T05:46:24.118Z,77.81
2019-05-21T05:47:24.101Z,77.61
2019-05-21T05:48:24.118Z,78.42
2019-05-21T05:49:31.576Z,77.77
2019-05-21T05:50:24.092Z,76.70
2019-05-21T05:51:24.088Z,75.55
2019-05-21T05:52:24.059Z,75.75
2019-05-21T05:53:24.056Z,74.84
2019-05-21T05:54:24.032Z,75.14
2019-05-21T05:55:24.025Z,74.67
2019-05-21T05:56:24.035Z,74.57
2019-05-21T05:57:24.051Z,74.27
2019-05-21T05:58:24.012Z,75.48
2019-05-21T05:59:24.030Z,75.79
2019-05-21T06:00:23.970Z,74.87
2019-05-21T06:01:23.965Z,76.03
2019-05-21T06:02:23.966Z,75.58
2019-05-21T06:03:23.937Z,75.89
2019-05-21T06:04:23.968Z,76.90
2019-05-21T06:05:23.924Z,77.14
2019-05-21T06:06:23.914Z,76.73
2019-05-21T06:07:23.939Z,76.23
2019-05-21T06:08:23.883Z,77.24
2019-05-21T06:09:23.897Z,77.50
2019-05-21T06:10:23.884Z,76.83
2019-05-21T06:11:23.890Z,76.43
2019-05-21T06:12:23.902Z,76.73
2019-05-21T06:13:23.879Z,76.93
2019-05-21T06:14:23.853Z,77.10
2019-05-21T06:15:23.802Z,76.79
2019-05-21T06:16:23.793Z,76.90
2019-05-21T06:17:23.786Z,76.59
2019-05-21T06:18:23.806Z,76.50
2019-05-21T06:19:23.772Z,77.20
2019-05-21T06:20:23.747Z,77.61
2019-05-21T06:21:31.353Z,78.17
2019-05-21T06:22:23.733Z,76.93
2019-05-21T06:23:23.760Z,75.71
2019-05-21T06:24:23.704Z,75.48
2019-05-21T06:25:23.697Z,76.08
2019-05-21T06:26:23.710Z,75.68
2019-05-21T06:27:23.679Z,75.48
2019-05-21T06:28:23.706Z,74.87
2019-05-21T06:29:23.707Z,74.46
2019-05-21T06:30:23.652Z,74.66
2019-05-21T06:51:23.460Z,71.77
2019-05-21T06:53:30.886Z,70.66
2019-05-21T06:58:23.336Z,70.90
2019-05-21T06:59:23.423Z,69.82
2019-05-21T07:00:23.314Z,70.32
2019-05-21T07:01:28.916Z,70.19
2019-05-21T07:02:24.342Z,69.89
2019-05-21T07:03:23.333Z,70.90
2019-05-21T07:04:23.271Z,69.65
2019-05-21T07:05:23.289Z,69.85
2019-05-21T07:06:23.251Z,69.29
2019-05-21T07:07:23.244Z,69.38
2019-05-21T07:08:34.013Z,69.29
2019-05-21T07:09:24.308Z,69.15
2019-05-21T07:10:23.889Z,69.76
2019-05-21T07:11:23.201Z,69.25
2019-05-21T07:12:23.188Z,68.85
2019-05-21T07:13:23.175Z,69.18
2019-05-21T07:14:23.213Z,69.85
2019-05-21T07:15:23.157Z,70.16
2019-05-21T07:16:23.175Z,69.85
2019-05-21T07:17:23.129Z,69.15
2019-05-21T07:18:23.124Z,69.65
2019-05-21T07:19:23.115Z,70.46
2019-05-21T07:20:23.126Z,70.03
2019-05-21T07:21:23.104Z,70.32
2019-05-21T07:22:23.133Z,69.02
2019-05-21T07:23:23.069Z,68.98
2019-05-21T07:24:23.057Z,68.82
2019-05-21T07:25:30.544Z,68.51
2019-05-21T07:26:23.039Z,68.71
2019-05-21T07:27:23.014Z,69.72
2019-05-21T07:28:23.050Z,69.25
2019-05-21T07:29:22.993Z,69.35
2019-05-21T07:30:22.996Z,68.91
2019-05-21T07:32:22.967Z,69.76
2019-05-21T07:33:22.968Z,70.46
2019-05-21T07:34:22.974Z,69.76
2019-05-21T07:35:22.935Z,70.50
2019-05-21T07:36:22.914Z,70.29
2019-05-21T07:37:22.936Z,69.96
2019-05-21T07:38:22.906Z,69.65
2019-05-21T07:39:22.887Z,69.85
2019-05-21T07:40:22.881Z,69.76
2019-05-21T07:41:22.864Z,70.26
2019-05-21T07:42:22.890Z,70.36
2019-05-21T07:43:22.852Z,69.56
2019-05-21T07:44:22.859Z,69.65
2019-05-21T07:45:22.817Z,68.85
2019-05-21T07:46:22.809Z,68.95
2019-05-21T07:47:22.803Z,68.82
2019-05-21T07:48:22.809Z,69.12
2019-05-21T07:49:22.892Z,68.21
2019-05-21T07:50:22.764Z,68.31
2019-05-21T07:51:22.763Z,68.62
2019-05-21T07:52:22.752Z,68.62
2019-05-21T07:53:22.731Z,68.31
2019-05-21T07:54:22.721Z,67.71
2019-05-21T07:55:22.778Z,67.51
2019-05-21T07:56:22.757Z,67.31
2019-05-21T07:57:30.425Z,67.21
2019-05-21T07:58:22.678Z,67.11
2019-05-21T07:59:22.673Z,66.10
2019-05-21T08:00:22.700Z,66.80
2019-05-21T08:01:22.646Z,66.60
2019-05-21T08:03:22.630Z,66.80
2019-05-21T08:04:22.643Z,66.60
2019-05-21T08:05:22.604Z,67.27
2019-05-21T08:06:22.631Z,66.27
2019-05-21T08:07:22.638Z,66.77
2019-05-21T08:08:22.576Z,65.73
2019-05-21T08:09:22.560Z,65.23
2019-05-21T08:10:22.546Z,64.53
2019-05-21T08:11:22.538Z,64.80
2019-05-21T08:12:37.297Z,64.87
2019-05-21T08:13:23.511Z,63.76
2019-05-21T08:14:22.507Z,64.43
2019-05-21T08:15:22.498Z,63.03
2019-05-21T08:16:22.484Z,63.10
2019-05-21T08:17:22.486Z,61.90
2019-05-21T08:18:22.475Z,63.00
2019-05-21T08:19:22.514Z,62.90
2019-05-21T08:20:22.445Z,62.97
2019-05-21T08:21:22.441Z,62.97
2019-05-21T08:22:22.442Z,62.84
2019-05-21T08:23:22.439Z,63.04
2019-05-21T08:24:22.410Z,62.37
2019-05-21T08:25:22.387Z,60.97
2019-05-21T08:26:22.381Z,62.17
2019-05-21T08:27:22.362Z,63.70
2019-05-21T08:28:22.383Z,61.80
2019-05-21T08:29:32.457Z,62.27
2019-05-21T08:30:22.338Z,61.94
2019-05-21T08:31:22.323Z,63.28
2019-05-21T08:32:22.311Z,60.84
2019-05-21T08:33:22.330Z,60.97
2019-05-21T08:34:22.340Z,59.99
2019-05-21T08:35:22.362Z,60.82
2019-05-21T08:36:22.267Z,62.13
2019-05-21T08:37:22.256Z,61.63
2019-05-21T08:38:22.284Z,62.13
2019-05-21T08:39:28.838Z,62.56
2019-05-21T08:40:23.226Z,62.76
2019-05-21T08:41:22.264Z,63.23
2019-05-21T08:42:22.202Z,62.63
2019-05-21T08:43:22.356Z,62.93
2019-05-21T08:44:22.188Z,62.23
2019-05-21T08:45:22.214Z,63.70
2019-05-21T08:46:22.161Z,61.60
2019-05-21T08:47:22.149Z,62.80
2019-05-21T08:48:22.147Z,60.97
2019-05-21T08:49:22.139Z,61.87
2019-05-21T08:50:22.135Z,62.07
2019-05-21T08:51:22.135Z,61.36
2019-05-21T08:52:22.113Z,60.94
2019-05-21T08:53:22.083Z,60.44
2019-05-21T08:54:22.077Z,60.14
2019-05-21T08:55:22.058Z,60.94
2019-05-21T08:56:22.099Z,60.44
2019-05-21T08:57:22.047Z,60.24
2019-05-21T08:58:22.028Z,60.53
2019-05-21T08:59:22.020Z,60.01
2019-05-21T09:00:22.025Z,59.20
2019-05-21T09:01:28.984Z,60.11
2019-05-21T09:02:22.020Z,59.58
2019-05-21T09:03:21.979Z,58.58
2019-05-21T09:04:21.966Z,59.18
2019-05-21T09:05:21.952Z,59.68
2019-05-21T09:06:21.954Z,58.61
2019-05-21T09:07:22.019Z,58.48
2019-05-21T09:08:21.932Z,59.58
2019-05-21T09:09:21.912Z,58.68
2019-05-21T09:10:21.905Z,58.48
2019-05-21T09:11:21.904Z,59.28
2019-05-21T09:12:21.885Z,59.78
2019-05-21T09:13:21.870Z,59.25
2019-05-21T09:14:21.916Z,59.52
2019-05-21T09:15:21.856Z,58.59
2019-05-21T09:16:21.857Z,58.49
2019-05-21T09:17:21.929Z,57.39
2019-05-21T09:18:21.899Z,57.39
2019-05-21T09:19:21.811Z,58.39
2019-05-21T09:20:21.798Z,56.32
2019-05-21T09:21:21.796Z,57.35
2019-05-21T09:22:21.789Z,57.24
2019-05-21T09:23:21.907Z,57.65
2019-05-21T09:24:21.768Z,58.07
2019-05-21T09:25:21.741Z,58.98
2019-05-21T09:26:21.736Z,58.68
2019-05-21T09:27:21.727Z,58.48
2019-05-21T09:28:21.753Z,59.31
2019-05-21T09:29:21.704Z,58.30
2019-05-21T09:30:21.698Z,59.50
2019-05-21T09:31:21.679Z,59.50
2019-05-21T09:32:21.681Z,59.50
2019-05-21T09:33:30.512Z,58.70
2019-05-21T09:34:21.660Z,59.33
2019-05-21T09:35:21.648Z,59.74
2019-05-21T09:36:25.070Z,59.74
2019-05-21T09:37:21.623Z,59.83
2019-05-21T09:38:21.603Z,59.33
2019-05-21T09:39:21.605Z,59.86
2019-05-21T09:40:21.623Z,59.44
2019-05-21T09:41:21.613Z,59.33
2019-05-21T09:42:21.571Z,59.33
2019-05-21T09:43:21.607Z,60.44
2019-05-21T09:44:21.543Z,59.83
2019-05-21T09:45:21.591Z,59.61
2019-05-21T09:46:21.542Z,59.81
2019-05-21T09:47:21.525Z,59.70
2019-05-21T09:48:21.518Z,59.00
2019-05-21T09:49:21.495Z,59.20
2019-05-21T09:50:21.481Z,58.81
2019-05-21T09:51:21.487Z,59.11
2019-05-21T09:52:21.469Z,58.50
2019-05-21T09:53:21.453Z,58.81
2019-05-21T09:54:21.451Z,59.20
2019-05-21T09:55:21.451Z,59.50
2019-05-21T09:56:21.429Z,58.87
2019-05-21T09:57:21.408Z,58.58
2019-05-21T09:58:21.399Z,58.87
2019-05-21T09:59:21.384Z,58.75
2019-05-21T10:00:21.380Z,57.22
2019-05-21T10:01:21.389Z,57.32
2019-05-21T10:02:21.365Z,56.82
2019-05-21T10:03:21.338Z,56.02
2019-05-21T10:04:21.340Z,57.92
2019-05-21T10:05:28.820Z,57.59
2019-05-21T10:06:21.308Z,57.59
2019-05-21T10:07:38.165Z,58.29
2019-05-21T10:08:22.294Z,58.26
2019-05-21T10:09:21.287Z,56.57
2019-05-21T10:10:21.272Z,56.46
2019-05-21T10:11:21.261Z,55.47
2019-05-21T10:12:21.281Z,54.86
2019-05-21T10:13:21.266Z,55.97
2019-05-21T10:14:21.224Z,55.77
2019-05-21T10:15:21.226Z,55.79
2019-05-21T10:16:21.205Z,57.59
2019-05-21T10:17:21.210Z,57.29
2019-05-21T10:18:21.203Z,57.57
2019-05-21T10:19:21.173Z,56.70
2019-05-21T10:20:21.190Z,56.70
2019-05-21T10:21:21.168Z,55.79
2019-05-21T10:22:21.193Z,57.19
2019-05-21T10:23:21.143Z,55.99
2019-05-21T10:24:21.127Z,56.52
2019-05-21T10:25:21.116Z,57.05
2019-05-21T10:26:21.103Z,57.45
2019-05-21T10:27:21.092Z,58.45
2019-05-21T10:28:21.095Z,58.82
2019-05-21T10:29:21.075Z,58.29
2019-05-21T10:30:21.062Z,57.59
2019-05-21T10:31:21.055Z,57.32
2019-05-21T10:32:21.038Z,58.09
2019-05-21T10:33:21.058Z,57.82
2019-05-21T10:34:21.018Z,56.79
2019-05-21T10:35:21.012Z,55.79
2019-05-21T10:36:21.003Z,57.19
2019-05-21T10:37:27.973Z,56.29
2019-05-21T10:38:20.981Z,57.52
2019-05-21T10:39:20.973Z,56.92
2019-05-21T10:40:20.960Z,57.42
2019-05-21T10:41:20.943Z,58.12
2019-05-21T10:42:20.943Z,57.39
2019-05-21T10:43:20.928Z,57.29
2019-05-21T10:44:20.960Z,55.89
2019-05-21T10:45:20.908Z,56.70
2019-05-21T10:46:20.896Z,56.09
2019-05-21T10:47:20.979Z,55.09
2019-05-21T10:48:20.878Z,55.99
2019-05-21T10:49:20.865Z,55.19
2019-05-21T10:50:20.870Z,56.99
2019-05-21T10:51:20.855Z,57.07
2019-05-21T10:52:20.834Z,55.66
2019-05-21T10:53:20.826Z,55.74
2019-05-21T10:54:20.883Z,55.14
2019-05-21T10:55:20.863Z,55.81
2019-05-21T10:56:20.791Z,55.32
2019-05-21T10:57:20.790Z,55.21
2019-05-21T10:58:20.773Z,55.21
2019-05-21T10:59:20.760Z,54.71
2019-05-21T11:00:22.854Z,55.62
2019-05-21T11:01:20.760Z,55.62
2019-05-21T11:02:20.729Z,54.71
2019-05-21T11:03:20.829Z,54.71
2019-05-21T11:04:20.783Z,55.51
2019-05-21T11:05:20.704Z,55.84
2019-05-21T11:06:20.705Z,56.67
2019-05-21T11:07:20.697Z,56.99
2019-05-21T11:08:24.129Z,57.69
2019-05-21T11:09:28.617Z,58.00
2019-05-21T11:10:20.796Z,57.19
2019-05-21T11:11:21.344Z,57.50
2019-05-21T11:12:20.630Z,56.70
2019-05-21T11:13:20.617Z,56.46
2019-05-21T11:14:20.602Z,55.57
2019-05-21T11:15:20.596Z,56.87
2019-05-21T11:16:20.638Z,56.74
2019-05-21T11:17:20.583Z,57.64
2019-05-21T11:18:20.568Z,57.34
2019-05-21T11:19:20.548Z,57.37
2019-05-21T11:20:20.545Z,57.19
2019-05-21T11:21:20.527Z,57.50
2019-05-21T11:22:20.529Z,58.59
2019-05-21T11:23:20.507Z,58.92
2019-05-21T11:24:20.499Z,58.42
2019-05-21T11:25:20.499Z,58.42
2019-05-21T11:26:20.518Z,58.42
2019-05-21T11:27:20.492Z,58.55
2019-05-21T11:28:20.455Z,59.42
2019-05-21T11:29:20.478Z,59.35
2019-05-21T11:30:20.445Z,59.12
2019-05-21T11:31:20.434Z,59.12
2019-05-21T11:32:20.413Z,58.65
2019-05-21T11:33:20.414Z,59.55
2019-05-21T11:34:20.391Z,60.05
2019-05-21T11:35:20.386Z,59.45
2019-05-21T11:36:20.371Z,59.45
2019-05-21T11:37:20.378Z,59.25
2019-05-21T11:38:20.360Z,58.92
2019-05-21T11:39:20.334Z,58.89
2019-05-21T11:40:20.329Z,58.49
2019-05-21T11:41:28.111Z,57.26
2019-05-21T11:42:20.339Z,57.17
2019-05-21T11:43:20.294Z,56.77
2019-05-21T11:44:20.299Z,56.57
2019-05-21T11:45:31.607Z,56.04
2019-05-21T11:46:21.272Z,55.41
2019-05-21T11:47:20.259Z,55.41
2019-05-21T11:48:20.290Z,54.49
2019-05-21T11:49:20.233Z,53.59
2019-05-21T11:50:20.227Z,53.59
2019-05-21T11:51:20.243Z,54.41
2019-05-21T11:52:20.221Z,53.81
2019-05-21T11:53:20.242Z,55.19
2019-05-21T11:54:20.196Z,54.19
2019-05-21T11:55:20.172Z,53.79
2019-05-21T11:56:20.156Z,54.39
2019-05-21T11:57:20.142Z,52.99
2019-05-21T11:58:20.142Z,53.61
2019-05-21T11:59:20.179Z,54.69
2019-05-21T12:00:21.689Z,54.49
2019-05-21T12:01:20.102Z,54.89
2019-05-21T12:02:20.088Z,55.02
2019-05-21T12:03:20.089Z,54.99
2019-05-21T12:04:20.074Z,55.09
2019-05-21T12:05:20.265Z,54.69
2019-05-21T12:06:20.067Z,55.39
2019-05-21T12:07:20.041Z,54.66
2019-05-21T12:08:20.030Z,53.74
2019-05-21T12:09:20.016Z,53.41
2019-05-21T12:10:20.028Z,53.52
2019-05-21T12:11:19.993Z,53.39
2019-05-21T12:12:19.990Z,53.76
2019-05-21T12:13:26.961Z,52.37
2019-05-21T12:14:19.964Z,52.04
2019-05-21T12:15:19.944Z,53.04
2019-05-21T12:16:19.943Z,50.95
2019-05-21T12:17:19.930Z,51.25
2019-05-21T12:18:19.914Z,51.15
2019-05-21T12:19:19.903Z,50.95
2019-05-21T12:20:35.459Z,50.98
2019-05-21T12:21:20.901Z,52.37
2019-05-21T12:22:19.904Z,51.27
2019-05-21T12:23:19.900Z,51.89
2019-05-21T12:24:19.870Z,52.67
2019-05-21T12:25:19.845Z,51.35
2019-05-21T12:26:19.883Z,51.27
2019-05-21T12:27:19.883Z,50.85
2019-05-21T12:28:19.806Z,51.65
2019-05-21T12:29:19.799Z,50.87
2019-05-21T12:30:19.898Z,51.89
2019-05-21T12:31:19.771Z,50.80
2019-05-21T12:32:21.162Z,51.50
2019-05-21T12:33:19.751Z,52.27
2019-05-21T12:34:19.735Z,50.68
2019-05-21T12:35:19.736Z,51.37
2019-05-21T12:36:19.715Z,50.87
2019-05-21T12:37:19.718Z,51.07
2019-05-21T12:38:19.695Z,51.37
2019-05-21T12:39:19.690Z,51.35
2019-05-21T12:40:19.677Z,52.51
2019-05-21T12:41:19.685Z,50.93
2019-05-21T12:42:19.711Z,51.22
2019-05-21T12:43:19.646Z,52.02
2019-05-21T12:44:19.640Z,51.22
2019-05-21T12:45:27.164Z,50.73
2019-05-21T12:46:19.600Z,51.03
2019-05-21T12:47:19.600Z,51.30
2019-05-21T12:48:19.625Z,50.10
2019-05-21T12:49:19.570Z,49.63
2019-05-21T12:50:19.561Z,50.75
2019-05-21T12:51:19.552Z,50.78
2019-05-21T12:52:19.575Z,51.17
2019-05-21T12:53:19.531Z,51.82
2019-05-21T12:54:19.528Z,51.42
2019-05-21T12:55:19.531Z,52.12
2019-05-21T12:56:19.514Z,52.32
2019-05-21T12:57:19.541Z,53.31
2019-05-21T12:58:19.475Z,52.42
2019-05-21T12:59:19.473Z,51.25
2019-05-21T13:00:19.450Z,51.84
2019-05-21T13:01:19.458Z,52.07
2019-05-21T13:02:19.428Z,51.57
2019-05-21T13:03:19.421Z,51.97
2019-05-21T13:04:19.576Z,53.27
2019-05-21T13:05:19.405Z,52.37
2019-05-21T13:06:19.396Z,52.37
2019-05-21T13:07:19.376Z,52.34
2019-05-21T13:08:19.361Z,52.44
2019-05-21T13:09:32.388Z,52.44
2019-05-21T13:10:20.360Z,50.85
2019-05-21T13:11:19.335Z,50.65
2019-05-21T13:12:19.322Z,50.07
2019-05-21T13:13:19.308Z,50.40
2019-05-21T13:14:19.302Z,51.59
2019-05-21T13:15:19.311Z,52.59
2019-05-21T13:16:19.277Z,52.19
2019-05-21T13:17:27.193Z,52.39
2019-05-21T13:18:19.282Z,52.17
2019-05-21T13:19:19.252Z,51.97